createdAt,value
2022-11-10T00:01:25.306Z,1
2022-11-10T00:03:25.541Z,1
2022-11-10T00:05:25.290Z,1
2022-11-10T00:09:28.452Z,1
2022-11-10T00:11:25.169Z,1
2022-11-10T00:13:28.433Z,1
2022-11-10T00:15:25.272Z,1
2022-11-10T00:17:28.455Z,1
2022-11-10T00:19:25.259Z,1
2022-11-10T00:21:24.737Z,1
2022-11-10T00:23:25.274Z,1
2022-11-10T00:25:32.002Z,1
2022-11-10T00:27:25.177Z,1
2022-11-10T00:29:25.366Z,1
2022-11-10T00:31:25.429Z,1
2022-11-10T00:33:25.492Z,1
2022-11-10T00:35:25.523Z,1
2022-11-10T00:37:25.531Z,1
2022-11-10T00:39:25.300Z,1
2022-11-10T00:41:25.547Z,1
2022-11-10T00:43:26.648Z,1
2022-11-10T00:45:25.293Z,1
2022-11-10T00:47:25.284Z,1
2022-11-10T00:49:25.186Z,1
2022-11-10T00:51:25.265Z,1
2022-11-10T00:53:32.022Z,1
2022-11-10T00:55:25.310Z,1
2022-11-10T00:57:25.458Z,1
2022-11-10T00:59:28.446Z,1
2022-11-10T01:01:25.271Z,1
2022-11-10T01:03:25.299Z,1
2022-11-10T01:05:25.390Z,1
2022-11-10T01:07:28.874Z,1
2022-11-10T01:09:25.365Z,1
2022-11-10T01:11:25.470Z,1
2022-11-10T01:13:25.978Z,1
2022-11-10T01:15:28.864Z,1
2022-11-10T01:17:25.663Z,1
2022-11-10T01:19:32.037Z,1
2022-11-10T01:21:31.696Z,1
2022-11-10T01:23:25.430Z,1
2022-11-10T01:25:28.833Z,1
2022-11-10T01:27:28.432Z,1
2022-11-10T01:29:28.435Z,1
2022-11-10T01:31:25.244Z,1
2022-11-10T01:33:28.439Z,1
2022-11-10T01:35:28.879Z,1
2022-11-10T01:37:25.507Z,1
2022-11-10T01:39:32.035Z,1
2022-11-10T01:41:25.349Z,1
2022-11-10T01:43:25.232Z,1
2022-11-10T01:45:25.173Z,1
2022-11-10T01:47:25.596Z,1
2022-11-10T01:49:25.536Z,1
2022-11-10T01:51:25.302Z,1
2022-11-10T01:53:28.808Z,1
2022-11-10T01:55:25.375Z,1
2022-11-10T01:59:25.286Z,1
2022-11-10T02:01:25.260Z,1
2022-11-10T02:03:28.734Z,1
2022-11-10T02:05:28.441Z,1
2022-11-10T02:07:32.109Z,1
2022-11-10T02:09:25.277Z,1
2022-11-10T02:11:32.184Z,1
2022-11-10T02:13:25.491Z,1
2022-11-10T02:15:32.002Z,1
2022-11-10T02:17:25.464Z,1
2022-11-10T02:19:25.183Z,1
2022-11-10T02:21:25.329Z,1
2022-11-10T02:23:25.331Z,1
2022-11-10T02:25:25.318Z,1
2022-11-10T02:27:25.477Z,1
2022-11-10T02:29:25.332Z,1
2022-11-10T02:31:28.614Z,1
2022-11-10T02:33:25.527Z,1
2022-11-10T02:35:25.263Z,1
2022-11-10T02:37:25.184Z,1
2022-11-10T02:39:25.192Z,1
2022-11-10T02:41:28.400Z,1
2022-11-10T02:43:28.458Z,1
2022-11-10T02:45:28.671Z,1
2022-11-10T02:47:25.453Z,1
2022-11-10T02:49:25.574Z,1
2022-11-10T02:53:32.081Z,1
2022-11-10T02:55:25.411Z,1
2022-11-10T02:57:25.699Z,1
2022-11-10T02:59:25.282Z,1
2022-11-10T03:01:32.128Z,1
2022-11-10T03:03:25.730Z,1
2022-11-10T03:05:28.729Z,1
2022-11-10T03:07:25.371Z,1
2022-11-10T03:09:28.412Z,1
2022-11-10T03:11:32.476Z,1
2022-11-10T03:13:40.149Z,1
2022-11-10T03:15:28.837Z,1
2022-11-10T03:17:25.488Z,1
2022-11-10T03:19:25.246Z,1
2022-11-10T03:21:25.509Z,1
2022-11-10T03:23:25.504Z,1
2022-11-10T03:25:25.609Z,1
2022-11-10T03:27:25.811Z,1
2022-11-10T03:29:25.299Z,1
2022-11-10T03:33:25.446Z,1
2022-11-10T03:37:25.567Z,1
2022-11-10T03:39:25.614Z,1
2022-11-10T03:41:25.385Z,1
2022-11-10T03:43:25.553Z,1
2022-11-10T03:45:25.535Z,1
2022-11-10T03:47:25.632Z,1
2022-11-10T03:49:32.087Z,1
2022-11-10T03:51:32.201Z,1
2022-11-10T03:53:25.709Z,1
2022-11-10T03:55:25.578Z,1
2022-11-10T03:57:28.854Z,1
2022-11-10T03:59:25.297Z,1
2022-11-10T04:01:28.995Z,1
2022-11-10T04:03:28.849Z,1
2022-11-10T04:05:25.188Z,1
2022-11-10T04:07:25.569Z,1
2022-11-10T04:09:25.474Z,1
2022-11-10T04:11:25.320Z,1
2022-11-10T04:13:28.852Z,1
2022-11-10T04:15:32.056Z,1
2022-11-10T04:17:25.954Z,1
2022-11-10T04:19:25.427Z,1
2022-11-10T04:21:25.406Z,1
2022-11-10T04:23:25.555Z,1
2022-11-10T04:25:25.196Z,1
2022-11-10T04:27:25.474Z,1
2022-11-10T04:29:25.462Z,1
2022-11-10T04:31:25.202Z,1
2022-11-10T04:33:28.901Z,1
2022-11-10T04:35:25.319Z,1
2022-11-10T04:37:25.380Z,1
2022-11-10T04:39:28.397Z,1
2022-11-10T04:43:25.689Z,1
2022-11-10T04:45:25.191Z,1
2022-11-10T04:47:26.060Z,1
2022-11-10T04:49:25.455Z,1
2022-11-10T04:51:25.495Z,1
2022-11-10T04:53:25.344Z,1
2022-11-10T04:55:25.498Z,1
2022-11-10T04:57:28.943Z,1
2022-11-10T04:59:25.437Z,1
2022-11-10T05:01:25.609Z,1
2022-11-10T05:03:25.502Z,1
2022-11-10T05:05:25.210Z,1
2022-11-10T05:07:25.819Z,1
2022-11-10T05:09:28.671Z,1
2022-11-10T05:11:28.432Z,1
2022-11-10T05:13:24.740Z,1
2022-11-10T05:15:24.958Z,1
2022-11-10T05:17:25.348Z,1
2022-11-10T05:19:25.213Z,1
2022-11-10T05:21:25.219Z,1
2022-11-10T05:23:25.480Z,0
2022-11-10T05:25:25.526Z,0
2022-11-10T05:27:25.451Z,0
2022-11-10T05:29:25.333Z,0
2022-11-10T05:31:25.324Z,0.1
2022-11-10T05:33:26.024Z,0.2
2022-11-10T05:35:25.625Z,0.3
2022-11-10T05:37:25.416Z,0.4
2022-11-10T05:39:25.458Z,0.5
2022-11-10T05:41:25.527Z,0.8
2022-11-10T05:43:25.866Z,1.1
2022-11-10T05:45:31.578Z,1.3
2022-11-10T05:47:25.193Z,1.4
2022-11-10T05:49:25.631Z,1.8
2022-11-10T05:51:25.407Z,2.5
2022-11-10T05:53:28.895Z,3.2
2022-11-10T05:55:25.207Z,4.3
2022-11-10T05:57:25.661Z,6.7
2022-11-10T05:59:25.457Z,11.6
2022-11-10T06:03:25.908Z,22.2
2022-11-10T06:05:29.782Z,34.8
2022-11-10T06:07:25.699Z,47
2022-11-10T06:09:25.356Z,60.3
2022-11-10T06:11:28.392Z,77.5
2022-11-10T06:13:28.467Z,104.6
2022-11-10T06:15:28.856Z,134.3
2022-11-10T06:17:25.670Z,156
2022-11-10T06:19:25.225Z,181.3
2022-11-10T06:21:25.471Z,221.4
2022-11-10T06:23:28.692Z,257.2
2022-11-10T06:25:25.221Z,298.9
2022-11-10T06:27:25.341Z,330.3
2022-11-10T06:29:32.012Z,365
2022-11-10T06:31:28.724Z,383.8
2022-11-10T06:33:25.669Z,403.4
2022-11-10T06:35:25.231Z,445.9
2022-11-10T06:37:25.892Z,492.7
2022-11-10T06:39:28.977Z,544.6
2022-11-10T06:41:25.592Z,601.8
2022-11-10T06:43:25.618Z,632.7
2022-11-10T06:45:28.854Z,665.1
2022-11-10T06:47:28.522Z,665.1
2022-11-10T06:49:25.220Z,665.1
2022-11-10T06:51:28.671Z,735.1
2022-11-10T06:53:27.093Z,854.1
2022-11-10T06:55:28.523Z,1043.1
2022-11-10T06:57:29.097Z,1408.1
2022-11-10T06:59:25.410Z,1556.2
2022-11-10T07:01:25.359Z,1636
2022-11-10T07:03:32.042Z,1808
2022-11-10T07:05:28.705Z,1900.7
2022-11-10T07:08:38.660Z,1998.2
2022-11-10T07:10:16.046Z,2100.6
2022-11-10T07:14:53.760Z,2321.6
2022-11-10T07:21:35.429Z,2835.6
2022-11-10T07:26:18.928Z,2835.6
2022-11-10T07:30:03.711Z,2981
2022-11-10T07:33:42.329Z,3133.8
2022-11-10T07:38:14.053Z,3641
2022-11-10T07:47:14.705Z,3827.6
2022-11-10T07:49:11.190Z,4023.9
2022-11-10T07:51:10.712Z,11498.8
2022-11-10T07:53:12.206Z,31257
2022-11-10T07:55:14.303Z,32859.6
2022-11-10T07:57:14.354Z,34544.4
2022-11-10T07:59:10.897Z,34544.4
2022-11-10T08:01:17.653Z,36315.5
2022-11-10T08:03:11.045Z,36315.5
2022-11-10T08:05:14.184Z,38177.4
2022-11-10T08:07:10.942Z,38177.4
2022-11-10T08:09:10.905Z,38177.4
2022-11-10T08:11:10.921Z,40134.8
2022-11-10T08:13:13.526Z,40134.8
2022-11-10T08:15:14.147Z,42192.6
2022-11-10T08:17:17.378Z,42192.6
2022-11-10T08:19:10.285Z,42192.6
2022-11-10T08:21:17.625Z,40134.8
2022-11-10T08:23:10.845Z,44355.9
2022-11-10T08:25:10.457Z,44355.9
2022-11-10T08:27:13.849Z,44355.9
2022-11-10T08:29:10.858Z,46630
2022-11-10T08:31:10.826Z,46630
2022-11-10T08:33:13.507Z,46630
2022-11-10T08:35:10.837Z,49020.8
2022-11-10T08:37:14.822Z,49020.8
2022-11-10T08:39:11.024Z,49020.8
2022-11-10T08:41:10.438Z,49020.8
2022-11-10T08:43:10.674Z,49020.8
2022-11-10T08:45:10.899Z,51534.2
2022-11-10T08:47:17.448Z,49020.8
2022-11-10T08:49:10.979Z,51534.2
2022-11-10T08:51:13.420Z,54176.4
2022-11-10T08:53:10.795Z,54176.4
2022-11-10T08:55:19.570Z,54176.4
2022-11-10T08:57:17.458Z,51534.2
2022-11-10T08:59:10.829Z,54176.4
2022-11-10T09:01:11.297Z,32859.6
2022-11-10T09:03:15.346Z,20952.2
2022-11-10T09:05:11.018Z,40134.8
2022-11-10T09:07:14.775Z,46630
2022-11-10T09:09:10.594Z,62944
2022-11-10T09:11:11.603Z,14764.8
2022-11-10T09:13:11.034Z,62944
2022-11-10T09:15:13.897Z,66171.2
2022-11-10T09:17:10.294Z,66171.2
2022-11-10T09:19:13.188Z,66171.2
2022-11-10T09:21:14.358Z,32859.6
2022-11-10T09:23:17.483Z,46630
2022-11-10T09:25:10.370Z,25591.1
2022-11-10T09:27:14.406Z,46630
2022-11-10T09:31:14.271Z,8518.5
2022-11-10T09:33:17.433Z,6002.9
2022-11-10T09:35:11.040Z,6310.7
2022-11-10T09:37:13.066Z,15521.8
2022-11-10T09:39:10.552Z,29732.6
2022-11-10T09:43:10.480Z,34544.4
2022-11-10T09:45:14.130Z,49020.8
2022-11-10T09:47:12.348Z,69563.8
2022-11-10T09:49:12.076Z,69563.8
2022-11-10T09:51:11.283Z,69563.8
2022-11-10T09:53:16.732Z,73130.4
2022-11-10T09:55:14.335Z,69563.8
2022-11-10T09:57:17.400Z,56954
2022-11-10T09:59:10.312Z,56954
2022-11-10T10:01:17.748Z,62944
2022-11-10T10:03:14.350Z,36315.5
2022-11-10T10:05:14.116Z,10938
2022-11-10T10:07:11.860Z,10404.6
2022-11-10T10:09:11.039Z,10404.6
2022-11-10T10:11:10.649Z,14764.8
2022-11-10T10:13:17.458Z,16317.6
2022-11-10T10:15:10.695Z,14044.7
2022-11-10T10:17:10.865Z,15521.8
2022-11-10T10:19:10.805Z,13359.7
2022-11-10T10:21:11.288Z,11498.8
2022-11-10T10:23:11.242Z,10404.6
2022-11-10T10:25:10.855Z,10404.6
2022-11-10T10:27:17.525Z,51534.2
2022-11-10T10:29:17.492Z,13359.7
2022-11-10T10:31:10.969Z,26903.2
2022-11-10T10:33:10.838Z,8518.5
2022-11-10T10:35:10.356Z,84965.5
2022-11-10T10:37:14.149Z,32859.6
2022-11-10T10:39:10.266Z,84965.5
2022-11-10T10:41:10.272Z,84965.5
2022-11-10T10:43:14.325Z,8955.3
2022-11-10T10:45:11.342Z,56954
2022-11-10T10:47:16.332Z,84965.5
2022-11-10T10:49:27.797Z,84965.5
2022-11-10T10:51:14.396Z,7707.9
2022-11-10T10:53:10.474Z,15521.8
2022-11-10T10:55:10.334Z,8955.3
2022-11-10T10:57:10.922Z,84965.5
2022-11-10T10:59:14.071Z,8518.5
2022-11-10T11:01:10.370Z,84965.5
2022-11-10T11:03:14.326Z,84965.5
2022-11-10T11:05:14.412Z,54176.4
2022-11-10T11:07:10.495Z,11498.8
2022-11-10T11:09:10.437Z,9414.4
2022-11-10T11:11:14.078Z,59874.1
2022-11-10T11:13:13.999Z,28282.5
2022-11-10T11:15:10.252Z,84965.5
2022-11-10T11:17:10.911Z,84965.5
2022-11-10T11:19:13.501Z,15521.8
2022-11-10T11:21:14.352Z,89321.7
2022-11-10T11:23:14.348Z,12088.4
2022-11-10T11:25:11.045Z,84965.5
2022-11-10T11:27:11.299Z,84965.5
2022-11-10T11:29:10.951Z,9414.4
2022-11-10T11:31:13.119Z,8955.3
2022-11-10T11:33:11.235Z,14044.7
2022-11-10T11:35:14.173Z,12708.2
2022-11-10T11:37:19.157Z,10938
2022-11-10T11:39:10.379Z,9414.4
2022-11-10T11:41:14.529Z,29732.6
2022-11-10T11:43:10.881Z,66171.2
2022-11-10T11:45:10.526Z,80821.6
2022-11-10T11:47:17.590Z,80821.6
2022-11-10T11:49:14.355Z,80821.6
2022-11-10T11:51:10.933Z,80821.6
2022-11-10T11:53:10.446Z,80821.6
2022-11-10T11:55:10.992Z,44355.9
2022-11-10T11:59:17.530Z,19930.4
2022-11-10T12:01:10.909Z,46630
2022-11-10T12:03:10.475Z,59874.1
2022-11-10T12:05:14.236Z,80821.6
2022-11-10T12:07:14.444Z,17154.2
2022-11-10T12:09:14.226Z,76879.9
2022-11-10T12:11:10.651Z,62944
2022-11-10T12:13:10.448Z,18033.7
2022-11-10T12:15:10.845Z,76879.9
2022-11-10T12:17:14.203Z,76879.9
2022-11-10T12:19:10.367Z,76879.9
2022-11-10T12:21:14.040Z,76879.9
2022-11-10T12:23:10.946Z,76879.9
2022-11-10T12:25:10.347Z,76879.9
2022-11-10T12:27:10.424Z,76879.9
2022-11-10T12:29:10.957Z,76879.9
2022-11-10T12:31:11.094Z,76879.9
2022-11-10T12:33:10.849Z,73130.4
2022-11-10T12:35:11.069Z,73130.4
2022-11-10T12:37:17.200Z,73130.4
2022-11-10T12:39:10.463Z,73130.4
2022-11-10T12:41:15.436Z,73130.4
2022-11-10T12:43:10.384Z,73130.4
2022-11-10T12:45:17.584Z,73130.4
2022-11-10T12:47:10.462Z,73130.4
2022-11-10T12:49:11.014Z,69563.8
2022-11-10T12:51:11.298Z,69563.8
2022-11-10T12:53:11.774Z,69563.8
2022-11-10T12:55:11.011Z,69563.8
2022-11-10T12:57:14.445Z,69563.8
2022-11-10T12:59:11.234Z,69563.8
2022-11-10T13:01:10.947Z,69563.8
2022-11-10T13:03:10.337Z,69563.8
2022-11-10T13:05:16.751Z,66171.2
2022-11-10T13:07:13.260Z,66171.2
2022-11-10T13:09:14.373Z,66171.2
2022-11-10T13:11:10.943Z,66171.2
2022-11-10T13:13:10.607Z,66171.2
2022-11-10T13:15:10.913Z,66171.2
2022-11-10T13:17:14.298Z,62944
2022-11-10T13:19:10.497Z,62944
2022-11-10T13:21:14.264Z,62944
2022-11-10T13:23:10.369Z,62944
2022-11-10T13:25:14.265Z,59874.1
2022-11-10T13:27:10.969Z,59874.1
2022-11-10T13:31:10.845Z,59874.1
2022-11-10T13:33:10.402Z,59874.1
2022-11-10T13:35:14.146Z,56954
2022-11-10T13:37:10.557Z,56954
2022-11-10T13:39:11.580Z,56954
2022-11-10T13:43:10.361Z,54176.4
2022-11-10T13:45:10.499Z,54176.4
2022-11-10T13:47:10.570Z,51534.2
2022-11-10T13:49:15.235Z,51534.2
2022-11-10T13:51:11.054Z,40134.8
2022-11-10T13:53:10.476Z,46630
2022-11-10T13:55:16.287Z,36315.5
2022-11-10T13:57:14.365Z,49020.8
2022-11-10T13:59:14.411Z,34544.4
2022-11-10T14:01:14.481Z,10404.6
2022-11-10T14:03:14.287Z,9897.1
2022-11-10T14:05:10.484Z,9897.1
2022-11-10T14:07:10.392Z,4914.8
2022-11-10T14:09:10.990Z,5710.1
2022-11-10T14:11:10.562Z,12708.2
2022-11-10T14:13:10.495Z,6310.7
2022-11-10T14:15:11.325Z,4023.9
2022-11-10T14:17:10.619Z,4023.9
2022-11-10T14:19:10.513Z,3827.6
2022-11-10T14:21:14.120Z,3827.6
2022-11-10T14:23:14.255Z,3463.4
2022-11-10T14:25:10.438Z,5166.8
2022-11-10T14:27:10.446Z,3133.8
2022-11-10T14:29:11.220Z,2835.6
2022-11-10T14:31:15.841Z,2697.3
2022-11-10T14:33:10.396Z,2981
2022-11-10T14:35:10.383Z,2835.6
2022-11-10T14:37:10.957Z,2697.3
2022-11-10T14:39:10.596Z,2835.6
2022-11-10T14:41:10.648Z,2565.7
2022-11-10T14:43:14.372Z,2440.6
2022-11-10T14:45:14.194Z,2321.6
2022-11-10T14:47:10.920Z,2208.3
2022-11-10T14:51:11.084Z,1998.2
2022-11-10T14:53:10.533Z,1808
2022-11-10T14:57:10.400Z,1636
2022-11-10T14:59:11.114Z,1556.2
2022-11-10T15:01:11.020Z,1556.2
2022-11-10T15:03:14.412Z,1480.3
2022-11-10T15:05:14.309Z,1480.3
2022-11-10T15:07:14.450Z,1408.1
2022-11-10T15:09:10.375Z,1480.3
2022-11-10T15:11:14.437Z,1339.4
2022-11-10T15:13:11.182Z,1274.1
2022-11-10T15:15:14.443Z,1212
2022-11-10T15:17:14.053Z,1096.6
2022-11-10T15:19:10.924Z,1043.1
2022-11-10T15:25:11.107Z,735.1
2022-11-10T15:27:10.557Z,665.1
2022-11-10T15:29:12.664Z,601.8
2022-11-10T15:31:10.650Z,518
2022-11-10T15:33:17.561Z,445.9
2022-11-10T15:35:14.386Z,383.8
2022-11-10T15:37:11.097Z,330.3
2022-11-10T15:39:14.386Z,284.3
2022-11-10T15:41:18.513Z,244.7
2022-11-10T15:43:13.686Z,221.4
2022-11-10T15:45:10.962Z,190.6
2022-11-10T15:47:14.372Z,172.4
2022-11-10T15:49:10.405Z,148.4
2022-11-10T15:51:11.326Z,121.5
2022-11-10T15:53:11.298Z,94.6
2022-11-10T15:55:14.272Z,70.1
2022-11-10T15:57:11.295Z,51.9
2022-11-10T15:59:14.340Z,38.5
2022-11-10T16:01:11.014Z,27.1
2022-11-10T16:03:10.381Z,19.1
2022-11-10T16:05:10.364Z,13.5
2022-11-10T16:07:10.518Z,9.5
2022-11-10T16:09:11.216Z,6.7
2022-11-10T16:11:11.093Z,4.5
2022-11-10T16:15:17.521Z,2.1
2022-11-10T16:17:14.163Z,1.4
2022-11-10T16:19:14.654Z,1
2022-11-10T16:21:14.488Z,0.7
2022-11-10T16:23:10.577Z,0.5
2022-11-10T16:25:20.631Z,0.3
2022-11-10T16:27:10.965Z,0.3
2022-11-10T16:29:10.366Z,0.1
2022-11-10T16:31:11.231Z,0.1
2022-11-10T16:33:11.060Z,0.1
2022-11-10T16:35:10.508Z,0
2022-11-10T16:37:10.756Z,0
2022-11-10T16:39:14.479Z,0
2022-11-10T16:41:14.467Z,0
2022-11-10T16:43:10.853Z,1
2022-11-10T16:45:10.425Z,1
2022-11-10T16:47:10.380Z,1
2022-11-10T16:49:17.036Z,1
2022-11-10T16:51:10.361Z,1
2022-11-10T16:53:17.494Z,1
2022-11-10T16:55:14.357Z,1
2022-11-10T16:57:14.155Z,1
2022-11-10T16:59:10.893Z,1
2022-11-10T17:01:10.445Z,1
2022-11-10T17:03:10.393Z,1
2022-11-10T17:05:10.381Z,1
2022-11-10T17:07:16.392Z,1
2022-11-10T17:09:10.459Z,1
2022-11-10T17:11:11.123Z,1
2022-11-10T17:13:14.484Z,1
2022-11-10T17:15:10.290Z,1
2022-11-10T17:17:11.019Z,1
2022-11-10T17:19:11.366Z,1
2022-11-10T17:21:18.037Z,1
2022-11-10T17:23:10.473Z,1
2022-11-10T17:25:10.981Z,1
2022-11-10T17:27:10.939Z,1
2022-11-10T17:29:11.172Z,1
2022-11-10T17:31:10.856Z,1
2022-11-10T17:33:17.350Z,1
2022-11-10T17:35:11.158Z,1
2022-11-10T17:37:10.456Z,1
2022-11-10T17:39:10.438Z,1
2022-11-10T17:41:11.350Z,1
2022-11-10T17:43:10.918Z,1
2022-11-10T17:45:10.554Z,1
2022-11-10T17:47:14.415Z,1
2022-11-10T17:49:14.550Z,1
2022-11-10T17:51:14.459Z,1
2022-11-10T17:53:10.372Z,1
2022-11-10T17:55:11.227Z,1
2022-11-10T17:57:14.112Z,1
2022-11-10T17:59:14.372Z,1
2022-11-10T18:01:15.192Z,1
2022-11-10T18:03:17.506Z,1
2022-11-10T18:05:11.245Z,1
2022-11-10T18:07:10.501Z,1
2022-11-10T18:09:10.516Z,1
2022-11-10T18:11:12.872Z,1
2022-11-10T18:13:11.001Z,1
2022-11-10T18:15:14.265Z,1
2022-11-10T18:17:10.552Z,1
2022-11-10T18:19:10.405Z,1
2022-11-10T18:21:14.498Z,1
2022-11-10T18:23:10.793Z,1
2022-11-10T18:25:10.482Z,1
2022-11-10T18:27:14.241Z,1
2022-11-10T18:29:14.297Z,1
2022-11-10T18:31:10.644Z,1
2022-11-10T18:33:14.292Z,1
2022-11-10T18:35:10.433Z,1
2022-11-10T18:37:10.382Z,1
2022-11-10T18:39:11.259Z,1
2022-11-10T18:41:14.347Z,1
2022-11-10T18:43:17.518Z,1
2022-11-10T18:47:14.456Z,1
2022-11-10T18:49:10.461Z,1
2022-11-10T18:51:10.378Z,1
2022-11-10T18:53:13.951Z,1
2022-11-10T18:55:10.399Z,1
2022-11-10T18:57:17.602Z,1
2022-11-10T18:59:10.470Z,1
2022-11-10T19:03:10.436Z,1
2022-11-10T19:07:10.913Z,1
2022-11-10T19:09:10.572Z,1
2022-11-10T19:11:10.572Z,1
2022-11-10T19:15:17.612Z,1
2022-11-10T19:17:10.442Z,1
2022-11-10T19:19:13.663Z,1
2022-11-10T19:21:17.724Z,1
2022-11-10T19:23:14.396Z,1
2022-11-10T19:25:14.504Z,1
2022-11-10T19:27:14.196Z,1
2022-11-10T19:29:10.923Z,1
2022-11-10T19:31:10.646Z,1
2022-11-10T19:33:17.488Z,1
2022-11-10T19:35:17.640Z,1
2022-11-10T19:37:11.335Z,1
2022-11-10T19:39:10.578Z,1
2022-11-10T19:41:10.931Z,1
2022-11-10T19:43:10.944Z,1
2022-11-10T19:45:10.562Z,1
2022-11-10T19:47:11.278Z,1
2022-11-10T19:49:10.603Z,1
2022-11-10T19:51:14.120Z,1
2022-11-10T19:53:10.849Z,1
2022-11-10T19:55:14.942Z,1
2022-11-10T19:57:11.010Z,1
2022-11-10T19:59:14.372Z,1
2022-11-10T20:01:17.730Z,1
2022-11-10T20:03:10.965Z,1
2022-11-10T20:05:10.585Z,1
2022-11-10T20:07:10.511Z,1
2022-11-10T20:09:18.084Z,1
2022-11-10T20:11:10.309Z,1
2022-11-10T20:13:10.896Z,1
2022-11-10T20:15:10.504Z,1
2022-11-10T20:17:10.369Z,1
2022-11-10T20:19:11.013Z,1
2022-11-10T20:21:10.970Z,1
2022-11-10T20:23:10.579Z,1
2022-11-10T20:25:10.558Z,1
2022-11-10T20:27:10.406Z,1
2022-11-10T20:29:10.478Z,1
2022-11-10T20:31:10.540Z,1
2022-11-10T20:33:10.385Z,1
2022-11-10T20:35:11.247Z,1
2022-11-10T20:37:10.924Z,1
2022-11-10T20:39:11.177Z,1
2022-11-10T20:41:11.026Z,1
2022-11-10T20:43:11.327Z,1
2022-11-10T20:45:11.368Z,1
2022-11-10T20:47:11.071Z,1
2022-11-10T20:49:11.142Z,1
2022-11-10T20:51:14.403Z,1
2022-11-10T20:53:11.268Z,1
2022-11-10T20:55:11.300Z,1
2022-11-10T20:57:11.352Z,1
2022-11-10T20:59:17.598Z,1
2022-11-10T21:01:10.955Z,1
2022-11-10T21:03:10.603Z,1
2022-11-10T21:05:11.282Z,1
2022-11-10T21:09:10.523Z,1
2022-11-10T21:11:10.912Z,1
2022-11-10T21:13:10.515Z,1
2022-11-10T21:15:11.015Z,1
2022-11-10T21:17:11.029Z,1
2022-11-10T21:19:11.212Z,1
2022-11-10T21:21:14.064Z,1
2022-11-10T21:23:10.417Z,1
2022-11-10T21:25:10.422Z,1
2022-11-10T21:27:14.219Z,1
2022-11-10T21:29:10.984Z,1
2022-11-10T21:31:14.610Z,1
2022-11-10T21:33:10.400Z,1
2022-11-10T21:35:10.122Z,1
2022-11-10T21:37:10.422Z,1
2022-11-10T21:39:14.430Z,1
2022-11-10T21:41:14.516Z,1
2022-11-10T21:43:10.309Z,1
2022-11-10T21:45:10.878Z,1
2022-11-10T21:47:10.558Z,1
2022-11-10T21:49:11.065Z,1
2022-11-10T21:51:17.159Z,1
2022-11-10T21:53:13.978Z,1
2022-11-10T21:55:14.436Z,1
2022-11-10T21:57:14.487Z,1
2022-11-10T21:59:10.461Z,1
2022-11-10T22:01:10.500Z,1
2022-11-10T22:03:10.579Z,1
2022-11-10T22:05:14.521Z,1
2022-11-10T22:07:10.916Z,1
2022-11-10T22:09:11.104Z,1
2022-11-10T22:11:10.750Z,1
2022-11-10T22:13:11.300Z,1
2022-11-10T22:15:11.426Z,1
2022-11-10T22:17:11.327Z,1
2022-11-10T22:19:10.466Z,1
2022-11-10T22:21:10.743Z,1
2022-11-10T22:23:10.435Z,1
2022-11-10T22:27:10.403Z,1
2022-11-10T22:29:11.302Z,1
2022-11-10T22:31:17.593Z,1
2022-11-10T22:33:14.103Z,1
2022-11-10T22:35:14.070Z,1
2022-11-10T22:37:10.454Z,1
2022-11-10T22:39:11.035Z,1
2022-11-10T22:41:10.361Z,1
2022-11-10T22:43:14.220Z,1
2022-11-10T22:45:10.557Z,1
2022-11-10T22:47:10.420Z,1
2022-11-10T22:49:11.222Z,1
2022-11-10T22:53:17.502Z,1
2022-11-10T22:55:10.470Z,1
2022-11-10T22:57:14.233Z,1
2022-11-10T22:59:17.430Z,1
2022-11-10T23:01:11.015Z,1
2022-11-10T23:03:14.132Z,1
2022-11-10T23:05:11.034Z,1
2022-11-10T23:07:10.490Z,1
2022-11-10T23:09:10.763Z,1
2022-11-10T23:11:10.752Z,1
2022-11-10T23:13:10.603Z,1
2022-11-10T23:15:11.329Z,1
2022-11-10T23:17:17.651Z,1
2022-11-10T23:19:11.214Z,1
2022-11-10T23:21:10.604Z,1
2022-11-10T23:23:10.430Z,1
2022-11-10T23:25:17.518Z,1
2022-11-10T23:27:10.801Z,1
2022-11-10T23:29:14.180Z,1
2022-11-10T23:31:17.625Z,1
2022-11-10T23:33:10.957Z,1
2022-11-10T23:35:11.179Z,1
2022-11-10T23:37:14.512Z,1
2022-11-10T23:39:10.901Z,1
2022-11-10T23:41:10.746Z,1
2022-11-10T23:43:14.274Z,1
2022-11-10T23:45:14.227Z,1
2022-11-10T23:47:13.923Z,1
2022-11-10T23:49:10.389Z,1
2022-11-10T23:51:10.499Z,1
2022-11-10T23:53:10.877Z,1
2022-11-10T23:55:14.472Z,1
2022-11-10T23:57:11.371Z,1
2022-11-10T23:59:14.398Z,1
